createdAt,value
2022-11-09T00:01:30.254Z,13.41
2022-11-09T00:04:00.234Z,13.37
2022-11-09T00:06:29.948Z,13.33
2022-11-09T00:09:04.111Z,13.29
2022-11-09T00:11:38.235Z,13.24
2022-11-09T00:14:07.203Z,13.22
2022-11-09T00:16:35.691Z,13.19
2022-11-09T00:19:04.280Z,13.00
2022-11-09T00:21:33.021Z,12.82
2022-11-09T00:24:01.639Z,12.71
2022-11-09T00:26:30.233Z,12.66
2022-11-09T00:29:00.123Z,12.59
2022-11-09T00:31:28.630Z,12.55
2022-11-09T00:33:58.835Z,12.56
2022-11-09T00:36:29.138Z,12.53
2022-11-09T00:38:59.706Z,12.53
2022-11-09T00:41:28.854Z,12.52
2022-11-09T00:43:58.846Z,12.51
2022-11-09T00:46:27.754Z,12.51
2022-11-09T00:48:56.831Z,12.49
2022-11-09T00:51:25.982Z,12.48
2022-11-09T00:53:55.406Z,12.48
2022-11-09T00:56:24.770Z,12.49
2022-11-09T00:58:55.784Z,12.49
2022-11-09T01:01:26.042Z,12.49
2022-11-09T01:03:54.726Z,12.51
2022-11-09T01:06:25.020Z,12.51
2022-11-09T01:08:54.218Z,12.51
2022-11-09T01:11:23.831Z,12.52
2022-11-09T01:13:54.880Z,12.54
2022-11-09T01:16:25.627Z,12.60
2022-11-09T01:18:55.999Z,12.63
2022-11-09T01:21:27.461Z,12.63
2022-11-09T01:23:56.508Z,12.69
2022-11-09T01:26:25.187Z,12.72
2022-11-09T01:28:53.868Z,12.75
2022-11-09T01:31:23.705Z,12.78
2022-11-09T01:33:53.350Z,12.81
2022-11-09T01:36:24.848Z,12.84
2022-11-09T01:38:53.702Z,12.87
2022-11-09T01:41:24.720Z,12.88
2022-11-09T01:44:12.596Z,12.89
2022-11-09T01:46:53.003Z,12.90
2022-11-09T01:49:40.814Z,12.92
2022-11-09T01:52:14.215Z,12.94
2022-11-09T01:54:49.059Z,12.94
2022-11-09T01:57:23.059Z,12.96
2022-11-09T02:00:00.608Z,12.98
2022-11-09T02:02:29.412Z,13.00
2022-11-09T02:05:02.768Z,13.02
2022-11-09T02:07:31.599Z,13.02
2022-11-09T02:10:08.097Z,13.03
2022-11-09T02:12:37.551Z,13.04
2022-11-09T02:15:11.433Z,13.04
2022-11-09T02:17:40.912Z,13.04
2022-11-09T02:20:13.668Z,13.03
2022-11-09T02:22:42.896Z,13.03
2022-11-09T02:25:13.556Z,13.04
2022-11-09T02:27:43.641Z,13.02
2022-11-09T02:30:13.541Z,13.03
2022-11-09T02:32:41.894Z,13.01
2022-11-09T02:35:12.285Z,12.99
2022-11-09T02:37:45.695Z,12.97
2022-11-09T02:40:21.687Z,12.95
2022-11-09T02:42:50.528Z,12.92
2022-11-09T02:45:19.379Z,12.87
2022-11-09T02:47:47.993Z,12.82
2022-11-09T02:50:18.132Z,12.78
2022-11-09T02:52:46.775Z,12.75
2022-11-09T02:55:15.757Z,12.74
2022-11-09T02:57:44.883Z,12.71
2022-11-09T03:00:16.518Z,12.67
2022-11-09T03:02:46.100Z,12.63
2022-11-09T03:05:18.300Z,12.59
2022-11-09T03:07:47.484Z,12.55
2022-11-09T03:10:16.238Z,12.52
2022-11-09T03:12:44.676Z,12.48
2022-11-09T03:15:15.923Z,12.46
2022-11-09T03:17:47.641Z,12.44
2022-11-09T03:20:18.591Z,12.44
2022-11-09T03:22:46.886Z,12.42
2022-11-09T03:25:15.639Z,12.44
2022-11-09T03:27:44.646Z,12.45
2022-11-09T03:30:14.812Z,12.47
2022-11-09T03:32:48.014Z,12.46
2022-11-09T03:35:20.094Z,12.46
2022-11-09T03:37:48.965Z,12.47
2022-11-09T03:40:18.237Z,12.46
2022-11-09T03:43:35.081Z,12.42
2022-11-09T03:46:03.665Z,12.41
2022-11-09T03:48:31.932Z,12.42
2022-11-09T03:51:01.656Z,12.40
2022-11-09T03:53:29.914Z,12.40
2022-11-09T03:55:58.970Z,12.37
2022-11-09T03:58:27.549Z,12.37
2022-11-09T04:00:55.894Z,12.34
2022-11-09T04:03:24.161Z,12.33
2022-11-09T04:05:52.474Z,12.32
2022-11-09T04:08:22.111Z,12.31
2022-11-09T04:10:50.431Z,12.30
2022-11-09T04:13:19.111Z,12.30
2022-11-09T04:15:47.643Z,12.28
2022-11-09T04:18:17.839Z,12.28
2022-11-09T04:20:46.446Z,12.26
2022-11-09T04:23:16.094Z,12.26
2022-11-09T04:25:46.084Z,12.25
2022-11-09T04:28:20.091Z,12.24
2022-11-09T04:30:48.734Z,12.23
2022-11-09T04:33:17.579Z,12.22
2022-11-09T04:35:46.367Z,12.22
2022-11-09T04:38:16.066Z,12.21
2022-11-09T04:40:45.760Z,12.20
2022-11-09T04:43:15.983Z,12.19
2022-11-09T04:45:44.574Z,12.19
2022-11-09T04:48:13.210Z,12.17
2022-11-09T04:50:41.873Z,12.18
2022-11-09T04:53:12.669Z,12.17
2022-11-09T04:55:42.487Z,12.17
2022-11-09T04:58:12.662Z,12.17
2022-11-09T05:00:40.934Z,12.17
2022-11-09T05:03:09.682Z,12.18
2022-11-09T05:05:44.050Z,12.19
2022-11-09T05:08:15.635Z,12.20
2022-11-09T05:10:44.769Z,12.22
2022-11-09T05:13:14.959Z,12.22
2022-11-09T05:15:43.565Z,12.24
2022-11-09T05:18:12.159Z,12.25
2022-11-09T05:20:40.672Z,12.26
2022-11-09T05:23:26.548Z,12.27
2022-11-09T05:25:54.871Z,12.27
2022-11-09T05:28:24.495Z,12.28
2022-11-09T05:30:52.755Z,12.29
2022-11-09T05:33:21.690Z,12.30
2022-11-09T05:35:50.533Z,12.31
2022-11-09T05:38:19.256Z,12.31
2022-11-09T05:40:49.478Z,12.34
2022-11-09T05:43:17.933Z,12.34
2022-11-09T05:45:48.099Z,12.32
2022-11-09T05:48:18.071Z,12.32
2022-11-09T05:50:46.616Z,12.32
2022-11-09T05:53:33.732Z,12.32
2022-11-09T05:56:07.535Z,12.30
2022-11-09T05:58:38.652Z,12.30
2022-11-09T06:01:11.302Z,12.29
2022-11-09T06:03:44.415Z,12.28
2022-11-09T06:06:15.684Z,12.28
2022-11-09T06:08:44.430Z,12.29
2022-11-09T06:11:19.872Z,12.29
2022-11-09T06:13:52.532Z,12.31
2022-11-09T06:16:22.297Z,12.31
2022-11-09T06:18:51.007Z,12.32
2022-11-09T06:21:19.589Z,12.32
2022-11-09T06:23:48.165Z,12.33
2022-11-09T06:26:17.268Z,12.34
2022-11-09T06:28:45.856Z,12.36
2022-11-09T06:31:16.841Z,12.38
2022-11-09T06:33:46.687Z,12.38
2022-11-09T06:36:15.474Z,12.39
2022-11-09T06:38:43.948Z,12.41
2022-11-09T06:41:12.746Z,12.40
2022-11-09T06:43:41.523Z,12.39
2022-11-09T06:46:11.349Z,12.41
2022-11-09T06:48:40.307Z,12.41
2022-11-09T06:51:11.237Z,12.40
2022-11-09T06:53:41.405Z,12.39
2022-11-09T06:56:10.188Z,12.40
2022-11-09T06:58:38.823Z,12.40
2022-11-09T07:01:11.242Z,12.40
2022-11-09T07:03:40.521Z,12.42
2022-11-09T07:06:12.518Z,12.41
2022-11-09T07:08:41.834Z,12.42
2022-11-09T07:11:13.334Z,12.42
2022-11-09T07:13:41.709Z,12.43
2022-11-09T07:16:11.954Z,12.43
2022-11-09T07:18:40.310Z,12.43
2022-11-09T07:21:13.980Z,12.43
2022-11-09T07:23:43.389Z,12.45
2022-11-09T07:26:11.994Z,12.47
2022-11-09T07:28:40.787Z,12.49
2022-11-09T07:31:09.399Z,12.50
2022-11-09T07:33:37.968Z,12.52
2022-11-09T07:36:07.787Z,12.54
2022-11-09T07:38:37.388Z,12.55
2022-11-09T07:41:05.914Z,12.56
2022-11-09T07:43:34.149Z,12.59
2022-11-09T07:46:05.924Z,12.60
2022-11-09T07:48:34.562Z,12.63
2022-11-09T07:51:03.567Z,12.63
2022-11-09T07:53:32.324Z,12.65
2022-11-09T07:56:04.338Z,12.66
2022-11-09T07:58:34.241Z,12.68
2022-11-09T08:01:02.532Z,12.70
2022-11-09T08:03:30.732Z,12.71
2022-11-09T08:05:59.098Z,12.73
2022-11-09T08:08:27.337Z,12.74
2022-11-09T08:10:58.496Z,12.77
2022-11-09T08:13:28.159Z,12.78
2022-11-09T08:15:56.739Z,12.80
2022-11-09T08:18:25.110Z,12.82
2022-11-09T08:20:53.361Z,12.83
2022-11-09T08:23:22.590Z,12.84
2022-11-09T08:25:51.735Z,12.86
2022-11-09T08:28:20.362Z,12.86
2022-11-09T08:30:57.588Z,12.87
2022-11-09T08:33:27.397Z,12.89
2022-11-09T08:35:56.362Z,12.93
2022-11-09T08:38:24.770Z,12.94
2022-11-09T08:40:58.776Z,12.97
2022-11-09T08:43:27.528Z,12.98
2022-11-09T08:45:57.202Z,13.03
2022-11-09T08:48:25.840Z,13.08
2022-11-09T08:50:55.816Z,13.13
2022-11-09T08:53:24.989Z,13.19
2022-11-09T08:55:53.774Z,13.27
2022-11-09T08:58:22.909Z,13.32
2022-11-09T09:00:51.442Z,13.38
2022-11-09T09:03:21.084Z,13.41
2022-11-09T09:05:49.274Z,13.44
2022-11-09T09:08:21.885Z,13.49
2022-11-09T09:10:50.970Z,13.52
2022-11-09T09:13:22.534Z,13.52
2022-11-09T09:15:51.466Z,13.56
2022-11-09T09:18:21.556Z,13.59
2022-11-09T09:20:50.423Z,13.61
2022-11-09T09:23:19.257Z,13.65
2022-11-09T09:25:48.303Z,13.67
2022-11-09T09:28:16.565Z,13.72
2022-11-09T09:30:45.186Z,13.72
2022-11-09T09:33:13.385Z,13.73
2022-11-09T09:35:43.033Z,13.74
2022-11-09T09:38:11.373Z,13.74
2022-11-09T09:40:49.617Z,13.74
2022-11-09T09:43:27.881Z,13.76
2022-11-09T09:45:57.026Z,13.79
2022-11-09T09:48:36.734Z,13.83
2022-11-09T09:51:14.586Z,13.88
2022-11-09T09:53:48.773Z,14.00
2022-11-09T09:56:21.845Z,14.13
2022-11-09T09:58:57.797Z,14.32
2022-11-09T10:01:36.122Z,14.51
2022-11-09T10:04:04.723Z,14.78
2022-11-09T10:06:49.490Z,15.03
2022-11-09T10:09:33.066Z,15.40
2022-11-09T10:12:12.216Z,15.53
2022-11-09T10:15:07.434Z,15.60
2022-11-09T10:17:50.227Z,15.62
2022-11-09T10:20:52.912Z,15.53
2022-11-09T10:23:44.796Z,15.41
2022-11-09T10:26:19.979Z,15.31
2022-11-09T10:31:47.899Z,15.16
2022-11-09T10:34:20.768Z,15.12
2022-11-09T10:37:04.436Z,15.08
2022-11-09T10:39:45.339Z,15.13
2022-11-09T10:42:32.591Z,15.47
2022-11-09T10:45:30.475Z,16.03
2022-11-09T10:48:33.261Z,16.60
2022-11-09T10:51:40.579Z,16.99
2022-11-09T10:54:31.194Z,16.79
2022-11-09T10:57:22.905Z,16.57
2022-11-09T11:00:17.593Z,16.55
2022-11-09T11:03:16.459Z,16.56
2022-11-09T11:06:05.882Z,16.69
2022-11-09T11:09:14.519Z,16.69
2022-11-09T11:12:16.245Z,16.62
2022-11-09T11:15:04.842Z,16.59
2022-11-09T11:18:01.166Z,16.56
2022-11-09T11:20:48.726Z,16.49
2022-11-09T11:23:36.966Z,16.42
2022-11-09T11:26:35.570Z,16.35
2022-11-09T11:29:38.632Z,16.23
2022-11-09T11:32:27.320Z,16.10
2022-11-09T11:35:16.605Z,15.98
2022-11-09T11:38:21.151Z,15.90
2022-11-09T11:41:31.695Z,15.89
2022-11-09T11:44:42.874Z,15.90
2022-11-09T11:47:43.024Z,15.91
2022-11-09T11:50:42.239Z,15.91
2022-11-09T11:53:48.883Z,15.90
2022-11-09T11:56:43.271Z,15.92
2022-11-09T11:59:56.896Z,15.89
2022-11-09T12:03:14.227Z,15.82
2022-11-09T12:06:44.326Z,15.74
2022-11-09T12:09:54.582Z,15.74
2022-11-09T12:12:53.701Z,15.74
2022-11-09T12:15:53.201Z,15.75
2022-11-09T12:18:56.706Z,15.77
2022-11-09T12:21:52.543Z,15.78
2022-11-09T12:24:47.762Z,15.79
2022-11-09T12:28:07.535Z,15.77
2022-11-09T12:31:10.298Z,15.79
2022-11-09T12:34:04.544Z,15.82
2022-11-09T12:36:56.655Z,15.87
2022-11-09T12:39:47.436Z,15.88
2022-11-09T12:42:44.481Z,15.90
2022-11-09T12:45:35.327Z,15.91
2022-11-09T12:48:25.748Z,15.92
2022-11-09T12:51:14.234Z,15.93
2022-11-09T12:54:03.008Z,15.94
2022-11-09T12:56:56.288Z,15.95
2022-11-09T13:00:30.225Z,15.93
2022-11-09T13:03:27.461Z,15.94
2022-11-09T13:06:20.632Z,15.95
2022-11-09T13:09:20.471Z,15.96
2022-11-09T13:12:19.416Z,15.94
2022-11-09T13:15:27.862Z,15.93
2022-11-09T13:18:27.275Z,15.91
2022-11-09T13:21:40.467Z,15.91
2022-11-09T13:24:56.397Z,15.90
2022-11-09T13:27:45.654Z,15.89
2022-11-09T13:30:43.846Z,15.86
2022-11-09T13:33:31.707Z,15.85
2022-11-09T13:36:22.390Z,15.84
2022-11-09T13:39:31.806Z,15.81
2022-11-09T13:42:34.668Z,15.80
2022-11-09T13:45:30.437Z,15.78
2022-11-09T13:48:35.118Z,15.75
2022-11-09T13:51:26.859Z,15.75
2022-11-09T13:57:10.113Z,15.75
2022-11-09T14:00:00.801Z,15.74
2022-11-09T14:02:55.896Z,15.73
2022-11-09T14:05:45.310Z,15.72
2022-11-09T14:08:40.394Z,15.72
2022-11-09T14:11:55.868Z,15.68
2022-11-09T14:15:08.765Z,15.67
2022-11-09T14:18:11.991Z,15.66
2022-11-09T14:21:14.363Z,15.62
2022-11-09T14:24:04.898Z,15.61
2022-11-09T14:27:16.806Z,15.57
2022-11-09T14:30:20.386Z,15.55
2022-11-09T14:33:23.093Z,15.53
2022-11-09T14:36:13.937Z,15.53
2022-11-09T14:39:03.524Z,15.52
2022-11-09T14:41:51.609Z,15.50
2022-11-09T14:44:43.836Z,15.49
2022-11-09T14:47:35.259Z,15.48
2022-11-09T14:50:25.955Z,15.47
2022-11-09T14:53:18.995Z,15.44
2022-11-09T14:56:09.199Z,15.42
2022-11-09T14:58:58.191Z,15.40
2022-11-09T15:01:59.895Z,15.37
2022-11-09T15:04:56.891Z,15.34
2022-11-09T15:07:48.035Z,15.30
2022-11-09T15:10:36.019Z,15.27
2022-11-09T15:13:32.626Z,15.22
2022-11-09T15:16:24.145Z,15.18
2022-11-09T15:19:31.579Z,15.13
2022-11-09T15:22:48.000Z,15.09
2022-11-09T15:25:37.793Z,15.07
2022-11-09T15:28:27.400Z,15.04
2022-11-09T15:31:18.804Z,15.01
2022-11-09T15:34:23.799Z,14.98
2022-11-09T15:37:28.240Z,14.97
2022-11-09T15:40:21.564Z,14.98
2022-11-09T15:43:08.464Z,14.98
2022-11-09T15:45:56.493Z,14.98
2022-11-09T15:48:46.346Z,14.95
2022-11-09T15:51:33.880Z,14.92
2022-11-09T15:54:22.029Z,14.90
2022-11-09T15:57:18.672Z,14.90
2022-11-09T16:00:11.342Z,14.90
2022-11-09T16:03:01.161Z,14.86
2022-11-09T16:05:48.703Z,14.83
2022-11-09T16:08:35.308Z,14.79
2022-11-09T16:11:22.106Z,14.76
2022-11-09T16:14:10.461Z,14.72
2022-11-09T16:16:57.675Z,14.68
2022-11-09T16:19:44.359Z,14.64
2022-11-09T16:22:32.824Z,14.59
2022-11-09T16:25:20.378Z,14.55
2022-11-09T16:28:07.511Z,14.50
2022-11-09T16:30:55.847Z,14.47
2022-11-09T16:33:43.247Z,14.45
2022-11-09T16:36:31.201Z,14.43
2022-11-09T16:39:18.575Z,14.40
2022-11-09T16:42:10.145Z,14.39
2022-11-09T16:45:01.429Z,14.38
2022-11-09T16:47:53.799Z,14.35
2022-11-09T16:50:40.833Z,14.34
2022-11-09T16:53:27.854Z,14.31
2022-11-09T16:56:14.863Z,14.30
2022-11-09T16:59:02.423Z,14.31
2022-11-09T17:01:53.486Z,14.31
2022-11-09T17:04:42.252Z,14.28
2022-11-09T17:07:29.770Z,14.25
2022-11-09T17:10:17.216Z,14.24
2022-11-09T17:13:04.427Z,14.22
2022-11-09T17:15:53.338Z,14.21
2022-11-09T17:18:40.563Z,14.19
2022-11-09T17:21:30.349Z,14.15
2022-11-09T17:24:17.840Z,14.13
2022-11-09T17:27:04.857Z,14.10
2022-11-09T17:29:52.708Z,14.07
2022-11-09T17:32:41.003Z,14.04
2022-11-09T17:35:28.339Z,14.01
2022-11-09T17:38:16.707Z,13.99
2022-11-09T17:41:05.126Z,13.97
2022-11-09T17:43:51.944Z,13.96
2022-11-09T17:46:39.029Z,13.93
2022-11-09T17:49:26.217Z,13.90
2022-11-09T17:52:13.030Z,13.87
2022-11-09T17:55:01.654Z,13.85
2022-11-09T17:57:48.642Z,13.82
2022-11-09T18:00:35.436Z,13.78
2022-11-09T18:03:23.077Z,13.76
2022-11-09T18:06:13.217Z,13.75
2022-11-09T18:09:34.451Z,13.72
2022-11-09T18:12:09.182Z,13.68
2022-11-09T18:14:56.119Z,13.66
2022-11-09T18:17:43.855Z,13.65
2022-11-09T18:20:30.802Z,13.63
2022-11-09T18:23:18.134Z,13.59
2022-11-09T18:26:06.229Z,13.57
2022-11-09T18:28:56.404Z,13.54
2022-11-09T18:31:43.349Z,13.52
2022-11-09T18:34:30.511Z,13.50
2022-11-09T18:37:17.576Z,13.48
2022-11-09T18:40:05.070Z,13.45
2022-11-09T18:42:52.033Z,13.43
2022-11-09T18:45:40.299Z,13.41
2022-11-09T18:48:27.986Z,13.41
2022-11-09T18:51:14.887Z,13.39
2022-11-09T18:54:01.944Z,13.37
2022-11-09T18:56:49.190Z,13.38
2022-11-09T18:59:39.978Z,13.38
2022-11-09T19:02:28.419Z,13.39
2022-11-09T19:05:15.746Z,13.41
2022-11-09T19:08:02.447Z,13.40
2022-11-09T19:10:49.524Z,13.39
2022-11-09T19:13:36.818Z,13.37
2022-11-09T19:16:25.237Z,13.36
2022-11-09T19:19:15.880Z,13.33
2022-11-09T19:22:02.793Z,13.31
2022-11-09T19:24:50.166Z,13.29
2022-11-09T19:27:37.185Z,13.26
2022-11-09T19:30:25.812Z,13.24
2022-11-09T19:33:12.933Z,13.23
2022-11-09T19:36:28.510Z,13.20
2022-11-09T19:39:08.577Z,13.17
2022-11-09T19:41:55.997Z,13.16
2022-11-09T19:44:43.118Z,13.14
2022-11-09T19:47:30.075Z,13.12
2022-11-09T19:50:17.476Z,13.10
2022-11-09T19:53:05.327Z,13.08
2022-11-09T19:55:52.391Z,13.06
2022-11-09T19:58:39.554Z,13.03
2022-11-09T20:01:27.373Z,13.02
2022-11-09T20:04:14.151Z,13.01
2022-11-09T20:07:01.431Z,13.01
2022-11-09T20:09:49.753Z,12.99
2022-11-09T20:12:51.900Z,12.98
2022-11-09T20:15:38.947Z,12.95
2022-11-09T20:18:26.382Z,12.94
2022-11-09T20:21:13.272Z,12.93
2022-11-09T20:24:00.297Z,12.92
2022-11-09T20:26:48.356Z,12.89
2022-11-09T20:29:35.850Z,12.86
2022-11-09T20:32:23.772Z,12.83
2022-11-09T20:35:10.898Z,12.79
2022-11-09T20:37:58.157Z,12.77
2022-11-09T20:40:45.266Z,12.73
2022-11-09T20:43:33.587Z,12.70
2022-11-09T20:46:24.459Z,12.68
2022-11-09T20:49:11.966Z,12.66
2022-11-09T20:51:59.411Z,12.64
2022-11-09T20:54:46.136Z,12.62
2022-11-09T20:57:33.155Z,12.59
2022-11-09T21:00:24.516Z,12.55
2022-11-09T21:03:11.838Z,12.52
2022-11-09T21:05:59.396Z,12.50
2022-11-09T21:08:47.445Z,12.48
2022-11-09T21:11:57.300Z,12.44
2022-11-09T21:14:44.465Z,12.38
2022-11-09T21:17:33.093Z,12.36
2022-11-09T21:20:20.048Z,12.29
2022-11-09T21:23:25.267Z,12.26
2022-11-09T21:26:29.860Z,12.22
2022-11-09T21:29:37.537Z,12.18
2022-11-09T21:32:25.093Z,12.15
2022-11-09T21:35:13.162Z,12.13
2022-11-09T21:38:00.131Z,12.11
2022-11-09T21:40:47.001Z,12.07
2022-11-09T21:43:34.065Z,12.03
2022-11-09T21:46:20.951Z,11.98
2022-11-09T21:49:10.207Z,11.91
2022-11-09T21:51:58.820Z,11.85
2022-11-09T21:54:45.986Z,11.80
2022-11-09T21:57:32.922Z,11.75
2022-11-09T22:00:20.348Z,11.69
2022-11-09T22:03:07.381Z,11.63
2022-11-09T22:05:54.089Z,11.57
2022-11-09T22:08:42.701Z,11.51
2022-11-09T22:11:43.768Z,11.45
2022-11-09T22:14:47.817Z,11.38
2022-11-09T22:17:34.708Z,11.31
2022-11-09T22:20:39.363Z,11.24
2022-11-09T22:23:26.561Z,11.12
2022-11-09T22:26:14.862Z,11.05
2022-11-09T22:29:02.170Z,10.99
2022-11-09T22:31:49.102Z,10.93
2022-11-09T22:34:36.095Z,10.87
2022-11-09T22:37:23.043Z,10.87
2022-11-09T22:40:11.305Z,10.86
2022-11-09T22:42:59.393Z,10.85
2022-11-09T22:45:46.416Z,10.84
2022-11-09T22:48:33.578Z,10.85
2022-11-09T22:51:20.943Z,10.89
2022-11-09T22:54:08.588Z,10.91
2022-11-09T22:56:55.826Z,10.92
2022-11-09T22:59:43.654Z,10.92
2022-11-09T23:02:30.793Z,10.92
2022-11-09T23:05:18.183Z,10.93
2022-11-09T23:08:05.782Z,10.91
2022-11-09T23:10:55.917Z,10.90
2022-11-09T23:13:43.475Z,10.88
2022-11-09T23:16:31.612Z,10.87
2022-11-09T23:19:17.695Z,10.84
2022-11-09T23:22:04.909Z,10.83
2022-11-09T23:25:09.270Z,10.83
2022-11-09T23:27:56.804Z,10.82
2022-11-09T23:30:44.132Z,10.80
2022-11-09T23:33:32.267Z,10.78
2022-11-09T23:36:19.678Z,10.76
2022-11-09T23:39:07.050Z,10.72
2022-11-09T23:41:53.959Z,10.67
2022-11-09T23:44:40.573Z,10.64
2022-11-09T23:47:27.684Z,10.59
2022-11-09T23:50:15.939Z,10.57
2022-11-09T23:53:03.065Z,10.55
2022-11-09T23:55:50.381Z,10.53
2022-11-09T23:58:37.788Z,10.51
